createdAt,value
2023-05-18T00:00:35.590Z,77.69
2023-05-18T00:03:21.882Z,77.67
2023-05-18T00:05:50.560Z,77.88
2023-05-18T00:08:19.160Z,77.86
2023-05-18T00:10:47.812Z,77.74
2023-05-18T00:13:16.100Z,77.82
2023-05-18T00:15:44.581Z,77.79
2023-05-18T00:18:12.794Z,77.59
2023-05-18T00:20:41.541Z,77.70
2023-05-18T00:23:16.518Z,77.44
2023-05-18T00:25:45.071Z,77.49
2023-05-18T00:28:13.532Z,77.78
2023-05-18T00:30:41.810Z,77.61
2023-05-18T00:33:10.140Z,77.56
2023-05-18T00:35:38.464Z,77.52
2023-05-18T00:38:06.681Z,77.61
2023-05-18T00:40:35.114Z,77.68
2023-05-18T00:43:03.388Z,77.55
2023-05-18T00:45:31.895Z,77.74
2023-05-18T00:48:00.482Z,78.06
2023-05-18T00:50:29.032Z,77.84
2023-05-18T00:52:57.313Z,77.98
2023-05-18T00:55:28.095Z,78.11
2023-05-18T00:57:57.644Z,78.22
2023-05-18T01:00:26.638Z,78.30
2023-05-18T01:02:55.006Z,78.73
2023-05-18T01:05:23.496Z,78.55
2023-05-18T01:07:51.876Z,78.81
2023-05-18T01:10:20.976Z,79.21
2023-05-18T01:12:51.902Z,79.33
2023-05-18T01:15:34.714Z,79.62
2023-05-18T01:18:15.479Z,79.62
2023-05-18T01:20:46.196Z,79.68
2023-05-18T01:23:36.405Z,79.84
2023-05-18T01:26:15.634Z,79.96
2023-05-18T01:28:46.776Z,80.20
2023-05-18T01:31:16.611Z,80.47
2023-05-18T01:33:45.384Z,80.81
2023-05-18T01:36:13.753Z,80.86
2023-05-18T01:38:44.223Z,80.89
2023-05-18T01:41:15.732Z,80.80
2023-05-18T01:44:21.378Z,80.88
2023-05-18T01:47:12.485Z,81.12
2023-05-18T01:49:45.991Z,81.31
2023-05-18T01:52:19.711Z,81.09
2023-05-18T01:54:55.366Z,81.37
2023-05-18T01:57:24.941Z,81.65
2023-05-18T01:59:54.747Z,81.64
2023-05-18T02:02:23.154Z,81.71
2023-05-18T02:04:54.472Z,81.70
2023-05-18T02:07:22.669Z,81.92
2023-05-18T02:09:51.247Z,82.25
2023-05-18T02:12:19.400Z,82.11
2023-05-18T02:14:47.879Z,82.41
2023-05-18T02:17:18.102Z,82.37
2023-05-18T02:19:46.370Z,82.76
2023-05-18T02:22:14.549Z,82.88
2023-05-18T02:24:42.922Z,82.52
2023-05-18T02:27:11.100Z,82.60
2023-05-18T02:29:39.279Z,82.53
2023-05-18T02:32:08.778Z,82.71
2023-05-18T02:34:38.577Z,82.98
2023-05-18T02:37:06.747Z,83.41
2023-05-18T02:39:35.125Z,83.24
2023-05-18T02:42:03.606Z,83.16
2023-05-18T02:44:32.085Z,83.22
2023-05-18T02:47:00.259Z,82.99
2023-05-18T02:49:28.755Z,83.20
2023-05-18T02:51:57.026Z,83.42
2023-05-18T02:54:25.289Z,83.30
2023-05-18T02:56:57.145Z,83.55
2023-05-18T02:59:37.835Z,83.52
2023-05-18T03:02:06.533Z,83.53
2023-05-18T03:04:35.181Z,83.89
2023-05-18T03:07:03.671Z,83.68
2023-05-18T03:09:32.052Z,83.67
2023-05-18T03:12:01.542Z,83.91
2023-05-18T03:14:30.440Z,83.74
2023-05-18T03:16:59.321Z,84.00
2023-05-18T03:19:28.326Z,83.75
2023-05-18T03:21:58.168Z,83.83
2023-05-18T03:24:30.555Z,83.98
2023-05-18T03:27:01.349Z,84.13
2023-05-18T03:29:31.408Z,84.35
2023-05-18T03:32:00.538Z,84.50
2023-05-18T03:34:28.818Z,84.62
2023-05-18T03:36:58.420Z,84.74
2023-05-18T03:39:26.595Z,84.46
2023-05-18T03:41:54.986Z,84.51
2023-05-18T03:44:23.353Z,84.61
2023-05-18T03:46:51.723Z,84.62
2023-05-18T03:49:20.100Z,84.52
2023-05-18T03:51:48.378Z,84.83
2023-05-18T03:54:17.064Z,84.83
2023-05-18T03:56:47.290Z,84.60
2023-05-18T03:59:15.572Z,85.03
2023-05-18T04:01:44.712Z,85.13
2023-05-18T04:04:18.361Z,84.86
2023-05-18T04:06:47.238Z,85.00
2023-05-18T04:09:17.564Z,84.94
2023-05-18T04:11:46.147Z,84.67
2023-05-18T04:14:14.529Z,84.89
2023-05-18T04:16:43.236Z,84.54
2023-05-18T04:19:11.729Z,84.34
2023-05-18T04:21:43.783Z,84.32
2023-05-18T04:24:14.788Z,84.48
2023-05-18T04:26:43.477Z,84.60
2023-05-18T04:29:13.668Z,84.80
2023-05-18T04:31:43.015Z,84.87
2023-05-18T04:34:13.464Z,84.48
2023-05-18T04:36:43.021Z,84.07
2023-05-18T04:39:12.465Z,84.16
2023-05-18T04:41:42.484Z,84.04
2023-05-18T04:44:10.926Z,83.92
2023-05-18T04:46:41.037Z,84.02
2023-05-18T04:49:11.977Z,84.01
2023-05-18T04:51:42.308Z,83.84
2023-05-18T04:54:10.582Z,84.00
2023-05-18T04:56:39.051Z,83.91
2023-05-18T04:59:11.074Z,84.16
2023-05-18T05:01:39.575Z,84.58
2023-05-18T05:04:08.183Z,84.50
2023-05-18T05:06:37.274Z,84.13
2023-05-18T05:09:05.704Z,84.24
2023-05-18T05:11:35.041Z,84.54
2023-05-18T05:14:03.532Z,84.34
2023-05-18T05:16:32.604Z,84.58
2023-05-18T05:19:01.321Z,84.24
2023-05-18T05:21:30.091Z,84.45
2023-05-18T05:23:58.567Z,84.80
2023-05-18T05:26:28.479Z,84.44
2023-05-18T05:28:57.881Z,84.68
2023-05-18T05:31:26.502Z,84.64
2023-05-18T05:33:54.837Z,84.57
2023-05-18T05:36:23.417Z,84.74
2023-05-18T05:38:51.696Z,84.39
2023-05-18T05:41:20.278Z,84.01
2023-05-18T05:43:48.451Z,83.84
2023-05-18T05:46:17.673Z,83.61
2023-05-18T05:48:46.128Z,83.43
2023-05-18T05:51:14.299Z,83.02
2023-05-18T05:53:43.800Z,82.48
2023-05-18T05:56:12.284Z,81.86
2023-05-18T05:58:43.029Z,81.56
2023-05-18T06:01:11.497Z,81.75
2023-05-18T06:03:40.477Z,81.35
2023-05-18T06:06:09.478Z,81.10
2023-05-18T06:08:37.684Z,79.81
2023-05-18T06:11:06.126Z,79.24
2023-05-18T06:13:34.608Z,79.06
2023-05-18T06:16:03.693Z,78.70
2023-05-18T06:18:32.392Z,78.02
2023-05-18T06:21:04.652Z,77.38
2023-05-18T06:23:33.648Z,76.71
2023-05-18T06:26:04.684Z,76.49
2023-05-18T06:28:33.066Z,76.11
2023-05-18T06:31:09.546Z,75.94
2023-05-18T06:33:48.363Z,75.73
2023-05-18T06:36:17.450Z,75.46
2023-05-18T06:38:46.139Z,75.03
2023-05-18T06:41:14.511Z,74.70
2023-05-18T06:43:42.885Z,74.52
2023-05-18T06:46:25.006Z,74.09
2023-05-18T06:48:57.260Z,74.00
2023-05-18T06:51:25.938Z,73.16
2023-05-18T06:53:56.264Z,73.22
2023-05-18T06:56:24.545Z,73.00
2023-05-18T06:58:53.424Z,73.20
2023-05-18T07:01:21.722Z,72.54
2023-05-18T07:03:50.672Z,72.01
2023-05-18T07:06:18.968Z,72.05
2023-05-18T07:08:48.066Z,71.72
2023-05-18T07:11:16.437Z,70.86
2023-05-18T07:13:44.613Z,70.36
2023-05-18T07:16:12.866Z,70.30
2023-05-18T07:18:42.722Z,70.31
2023-05-18T07:21:11.846Z,69.78
2023-05-18T07:23:40.187Z,69.68
2023-05-18T07:26:11.207Z,69.15
2023-05-18T07:28:39.480Z,68.90
2023-05-18T07:31:07.721Z,68.14
2023-05-18T07:33:36.132Z,67.73
2023-05-18T07:36:04.920Z,67.79
2023-05-18T07:38:33.191Z,67.41
2023-05-18T07:41:01.474Z,67.03
2023-05-18T07:43:29.857Z,66.38
2023-05-18T07:45:58.185Z,66.14
2023-05-18T07:48:26.607Z,65.80
2023-05-18T07:50:54.983Z,65.55
2023-05-18T07:53:23.229Z,65.43
2023-05-18T07:55:52.036Z,65.38
2023-05-18T07:58:20.212Z,64.99
2023-05-18T08:00:48.495Z,64.80
2023-05-18T08:03:17.026Z,64.69
2023-05-18T08:05:45.288Z,64.00
2023-05-18T08:08:15.564Z,63.68
2023-05-18T08:10:43.736Z,63.28
2023-05-18T08:13:12.008Z,62.68
2023-05-18T08:15:43.459Z,62.40
2023-05-18T08:18:11.883Z,61.78
2023-05-18T08:20:40.417Z,61.41
2023-05-18T08:23:08.697Z,61.75
2023-05-18T08:25:37.075Z,61.77
2023-05-18T08:28:05.239Z,61.23
2023-05-18T08:30:33.513Z,61.11
2023-05-18T08:33:02.291Z,61.39
2023-05-18T08:35:30.896Z,60.87
2023-05-18T08:37:59.361Z,60.37
2023-05-18T08:40:33.555Z,60.18
2023-05-18T08:43:14.048Z,60.23
2023-05-18T08:45:51.095Z,59.88
2023-05-18T08:48:20.183Z,59.44
2023-05-18T08:50:49.918Z,59.28
2023-05-18T08:53:18.918Z,59.23
2023-05-18T08:55:49.234Z,59.08
2023-05-18T08:58:20.170Z,58.89
2023-05-18T09:00:54.084Z,58.45
2023-05-18T09:03:22.465Z,58.30
2023-05-18T09:05:52.467Z,58.27
2023-05-18T09:08:21.047Z,58.02
2023-05-18T09:10:50.669Z,58.00
2023-05-18T09:13:21.410Z,58.12
2023-05-18T09:15:51.585Z,57.82
2023-05-18T09:18:22.006Z,57.36
2023-05-18T09:20:52.266Z,56.85
2023-05-18T09:23:20.936Z,57.04
2023-05-18T09:25:52.537Z,57.04
2023-05-18T09:28:33.356Z,56.70
2023-05-18T09:31:01.844Z,56.55
2023-05-18T09:33:37.330Z,56.57
2023-05-18T09:36:07.295Z,56.26
2023-05-18T09:38:48.373Z,55.47
2023-05-18T09:41:17.781Z,54.58
2023-05-18T09:43:48.623Z,54.40
2023-05-18T09:46:18.236Z,54.56
2023-05-18T09:48:48.271Z,54.55
2023-05-18T09:51:18.250Z,54.52
2023-05-18T09:53:50.203Z,53.97
2023-05-18T09:56:18.599Z,52.56
2023-05-18T09:58:47.369Z,52.80
2023-05-18T10:01:15.901Z,53.01
2023-05-18T10:03:45.878Z,53.02
2023-05-18T10:06:14.356Z,52.69
2023-05-18T10:08:42.724Z,52.51
2023-05-18T10:11:11.511Z,52.06
2023-05-18T10:13:42.757Z,51.19
2023-05-18T10:16:11.259Z,51.10
2023-05-18T10:18:40.037Z,51.05
2023-05-18T10:21:08.601Z,50.84
2023-05-18T10:23:37.591Z,50.41
2023-05-18T10:26:07.713Z,50.29
2023-05-18T10:28:43.873Z,50.08
2023-05-18T10:31:12.696Z,49.76
2023-05-18T10:33:41.981Z,49.96
2023-05-18T10:36:10.946Z,49.70
2023-05-18T10:38:40.740Z,49.77
2023-05-18T10:41:10.364Z,50.12
2023-05-18T10:43:38.848Z,49.82
2023-05-18T10:46:08.545Z,49.35
2023-05-18T10:48:38.610Z,48.89
2023-05-18T10:51:07.465Z,48.40
2023-05-18T10:53:36.793Z,48.17
2023-05-18T10:56:05.954Z,47.83
2023-05-18T10:58:35.868Z,47.38
2023-05-18T11:01:06.610Z,47.45
2023-05-18T11:03:35.176Z,47.54
2023-05-18T11:06:10.546Z,47.40
2023-05-18T11:08:51.808Z,46.67
2023-05-18T11:11:24.497Z,46.37
2023-05-18T11:13:52.858Z,45.60
2023-05-18T11:16:21.489Z,45.36
2023-05-18T11:18:52.045Z,45.34
2023-05-18T11:21:36.478Z,45.46
2023-05-18T11:24:16.180Z,45.18
2023-05-18T11:26:55.196Z,44.96
2023-05-18T11:29:40.891Z,45.05
2023-05-18T11:32:30.477Z,44.78
2023-05-18T11:34:59.967Z,44.79
2023-05-18T11:37:40.304Z,44.67
2023-05-18T11:40:44.928Z,44.57
2023-05-18T11:43:23.249Z,44.48
2023-05-18T11:45:58.889Z,44.34
2023-05-18T11:48:31.830Z,43.83
2023-05-18T11:51:00.357Z,43.48
2023-05-18T11:53:30.468Z,43.65
2023-05-18T11:55:59.773Z,43.41
2023-05-18T11:58:30.805Z,43.21
2023-05-18T12:01:00.225Z,43.26
2023-05-18T12:03:30.114Z,43.16
2023-05-18T12:06:00.850Z,42.85
2023-05-18T12:08:29.908Z,42.47
2023-05-18T12:10:58.628Z,41.95
2023-05-18T12:13:27.992Z,42.07
2023-05-18T12:15:58.870Z,42.29
2023-05-18T12:18:29.821Z,42.21
2023-05-18T12:20:58.122Z,42.08
2023-05-18T12:23:37.748Z,41.96
2023-05-18T12:26:07.574Z,42.01
2023-05-18T12:28:36.846Z,41.66
2023-05-18T12:31:07.618Z,41.55
2023-05-18T12:33:36.040Z,41.36
2023-05-18T12:36:04.523Z,41.09
2023-05-18T12:38:34.575Z,40.95
2023-05-18T12:41:02.823Z,41.11
2023-05-18T12:43:37.553Z,40.88
2023-05-18T12:46:06.267Z,40.74
2023-05-18T12:48:47.013Z,39.94
2023-05-18T12:51:21.234Z,39.43
2023-05-18T12:53:50.602Z,39.14
2023-05-18T12:56:19.078Z,38.83
2023-05-18T12:59:00.783Z,38.91
2023-05-18T13:01:29.278Z,38.83
2023-05-18T13:03:58.998Z,38.35
2023-05-18T13:06:27.538Z,38.38
2023-05-18T13:08:56.531Z,38.21
2023-05-18T13:11:28.705Z,37.93
2023-05-18T13:14:00.569Z,37.43
2023-05-18T13:16:30.686Z,36.92
2023-05-18T13:19:01.640Z,36.56
2023-05-18T13:21:30.128Z,36.22
2023-05-18T13:23:58.671Z,36.17
2023-05-18T13:26:26.949Z,35.39
2023-05-18T13:28:56.675Z,34.56
2023-05-18T13:31:25.479Z,34.57
2023-05-18T13:33:53.820Z,34.51
2023-05-18T13:36:22.396Z,34.47
2023-05-18T13:38:52.515Z,33.90
2023-05-18T13:41:21.509Z,33.28
2023-05-18T13:43:49.885Z,33.45
2023-05-18T13:46:19.088Z,32.97
2023-05-18T13:48:47.503Z,32.70
2023-05-18T13:51:16.400Z,32.99
2023-05-18T13:53:44.726Z,33.55
2023-05-18T13:56:13.322Z,33.71
2023-05-18T13:58:42.204Z,32.85
2023-05-18T14:01:13.430Z,32.76
2023-05-18T14:03:42.150Z,32.89
2023-05-18T14:06:10.711Z,32.97
2023-05-18T14:08:39.090Z,32.58
2023-05-18T14:11:07.359Z,32.14
2023-05-18T14:13:35.530Z,32.04
2023-05-18T14:16:03.840Z,31.85
2023-05-18T14:18:32.081Z,31.60
2023-05-18T14:21:02.506Z,31.33
2023-05-18T14:23:30.807Z,31.42
2023-05-18T14:25:59.070Z,31.29
2023-05-18T14:28:27.330Z,30.83
2023-05-18T14:30:55.537Z,30.50
2023-05-18T14:33:23.878Z,30.05
2023-05-18T14:35:52.152Z,30.01
2023-05-18T14:38:20.427Z,30.14
2023-05-18T14:40:48.702Z,29.97
2023-05-18T14:43:17.189Z,30.16
2023-05-18T14:45:50.625Z,29.46
2023-05-18T14:48:21.836Z,29.52
2023-05-18T14:50:50.196Z,29.26
2023-05-18T14:53:18.574Z,29.43
2023-05-18T14:55:47.257Z,28.98
2023-05-18T14:58:15.636Z,28.83
2023-05-18T15:00:44.527Z,29.20
2023-05-18T15:03:12.795Z,28.92
2023-05-18T15:05:41.791Z,28.84
2023-05-18T15:08:10.065Z,28.60
2023-05-18T15:10:38.341Z,28.83
2023-05-18T15:13:06.931Z,29.06
2023-05-18T15:15:35.511Z,29.02
2023-05-18T15:18:04.008Z,29.16
2023-05-18T15:20:32.665Z,28.82
2023-05-18T15:23:01.146Z,28.41
2023-05-18T15:25:30.291Z,28.51
2023-05-18T15:27:58.619Z,29.08
2023-05-18T15:30:29.150Z,28.93
2023-05-18T15:32:57.932Z,28.86
2023-05-18T15:35:26.317Z,28.95
2023-05-18T15:37:54.690Z,29.13
2023-05-18T15:40:22.991Z,29.25
2023-05-18T15:42:51.236Z,29.48
2023-05-18T15:45:19.516Z,29.45
2023-05-18T15:47:47.814Z,29.41
2023-05-18T15:50:16.162Z,29.35
2023-05-18T15:52:44.754Z,29.43
2023-05-18T15:55:13.861Z,28.94
2023-05-18T15:57:42.319Z,28.92
2023-05-18T16:00:11.209Z,29.29
2023-05-18T16:02:42.507Z,29.53
2023-05-18T16:05:11.036Z,29.69
2023-05-18T16:07:41.360Z,29.56
2023-05-18T16:10:09.740Z,29.32
2023-05-18T16:12:37.914Z,29.35
2023-05-18T16:15:06.706Z,30.01
2023-05-18T16:17:35.097Z,30.53
2023-05-18T16:20:04.123Z,30.86
2023-05-18T16:22:32.774Z,31.47
2023-05-18T16:25:01.023Z,31.99
2023-05-18T16:27:29.300Z,32.57
2023-05-18T16:29:57.470Z,33.11
2023-05-18T16:32:27.849Z,33.80
2023-05-18T16:34:56.476Z,34.51
2023-05-18T16:37:24.751Z,34.77
2023-05-18T16:39:52.935Z,35.38
2023-05-18T16:42:22.651Z,35.77
2023-05-18T16:44:50.805Z,36.16
2023-05-18T16:47:18.977Z,36.29
2023-05-18T16:49:47.353Z,36.51
2023-05-18T16:52:18.501Z,36.76
2023-05-18T16:54:46.663Z,37.27
2023-05-18T16:57:15.452Z,37.52
2023-05-18T16:59:43.625Z,37.91
2023-05-18T17:02:14.278Z,38.27
2023-05-18T17:04:46.077Z,38.42
2023-05-18T17:07:14.493Z,38.77
2023-05-18T17:09:43.379Z,38.87
2023-05-18T17:12:12.336Z,39.11
2023-05-18T17:14:40.652Z,39.45
2023-05-18T17:17:09.048Z,39.58
2023-05-18T17:19:39.142Z,39.87
2023-05-18T17:22:09.770Z,39.98
2023-05-18T17:24:38.060Z,40.25
2023-05-18T17:27:06.525Z,40.53
2023-05-18T17:29:34.691Z,40.72
2023-05-18T17:32:03.346Z,40.92
2023-05-18T17:34:31.764Z,41.16
2023-05-18T17:37:00.236Z,41.23
2023-05-18T17:39:28.509Z,41.60
2023-05-18T17:41:57.839Z,41.85
2023-05-18T17:44:26.809Z,42.20
2023-05-18T17:46:55.183Z,42.65
2023-05-18T17:49:23.754Z,42.87
2023-05-18T17:51:52.672Z,42.84
2023-05-18T17:54:21.128Z,43.12
2023-05-18T17:56:49.516Z,43.26
2023-05-18T17:59:17.990Z,43.53
2023-05-18T18:01:46.634Z,43.78
2023-05-18T18:04:15.137Z,43.80
2023-05-18T18:06:43.625Z,44.20
2023-05-18T18:09:12.010Z,44.30
2023-05-18T18:11:40.488Z,44.88
2023-05-18T18:14:08.765Z,45.02
2023-05-18T18:16:37.081Z,45.50
2023-05-18T18:19:05.475Z,45.99
2023-05-18T18:21:33.797Z,46.33
2023-05-18T18:24:03.084Z,46.80
2023-05-18T18:26:32.491Z,47.33
2023-05-18T18:29:00.678Z,47.85
2023-05-18T18:31:29.078Z,48.44
2023-05-18T18:33:57.313Z,49.10
2023-05-18T18:36:26.550Z,49.63
2023-05-18T18:38:54.896Z,50.27
2023-05-18T18:41:23.189Z,50.87
2023-05-18T18:43:54.295Z,51.40
2023-05-18T18:46:22.816Z,51.83
2023-05-18T18:48:51.172Z,52.36
2023-05-18T18:51:19.439Z,52.87
2023-05-18T18:53:47.812Z,53.42
2023-05-18T18:56:16.192Z,53.97
2023-05-18T18:58:44.364Z,54.27
2023-05-18T19:01:12.694Z,54.92
2023-05-18T19:03:41.535Z,55.39
2023-05-18T19:06:09.698Z,55.86
2023-05-18T19:08:37.879Z,56.16
2023-05-18T19:11:06.250Z,56.48
2023-05-18T19:13:34.527Z,56.86
2023-05-18T19:16:02.852Z,57.45
2023-05-18T19:18:31.176Z,57.98
2023-05-18T19:21:01.616Z,58.38
2023-05-18T19:23:29.978Z,58.99
2023-05-18T19:25:59.789Z,59.25
2023-05-18T19:28:28.063Z,59.63
2023-05-18T19:30:56.357Z,60.07
2023-05-18T19:33:24.611Z,60.60
2023-05-18T19:35:54.632Z,60.87
2023-05-18T19:38:22.800Z,61.28
2023-05-18T19:40:51.377Z,61.59
2023-05-18T19:43:19.761Z,61.95
2023-05-18T19:45:50.044Z,62.51
2023-05-18T19:48:18.469Z,63.03
2023-05-18T19:50:46.731Z,63.18
2023-05-18T19:53:15.003Z,63.44
2023-05-18T19:55:43.499Z,63.80
2023-05-18T19:58:11.753Z,64.07
2023-05-18T20:00:41.447Z,64.30
2023-05-18T20:03:09.769Z,64.56
2023-05-18T20:05:38.611Z,64.90
2023-05-18T20:08:08.548Z,65.04
2023-05-18T20:10:36.688Z,65.34
2023-05-18T20:13:04.798Z,65.48
2023-05-18T20:15:36.857Z,65.87
2023-05-18T20:18:06.971Z,65.93
2023-05-18T20:20:36.375Z,66.12
2023-05-18T20:23:07.005Z,66.28
2023-05-18T20:25:35.479Z,66.66
2023-05-18T20:28:07.534Z,66.93
2023-05-18T20:30:35.924Z,66.97
2023-05-18T20:33:04.880Z,67.29
2023-05-18T20:35:33.973Z,67.54
2023-05-18T20:38:04.653Z,67.58
2023-05-18T20:40:33.455Z,67.84
2023-05-18T20:43:02.509Z,68.13
2023-05-18T20:45:31.682Z,68.44
2023-05-18T20:48:00.424Z,68.64
2023-05-18T20:50:29.590Z,68.87
2023-05-18T20:52:58.180Z,69.13
2023-05-18T20:55:26.757Z,69.40
2023-05-18T20:57:55.132Z,69.52
2023-05-18T21:00:23.403Z,69.66
2023-05-18T21:02:51.679Z,69.40
2023-05-18T21:05:20.368Z,69.58
2023-05-18T21:07:50.602Z,69.86
2023-05-18T21:10:18.961Z,70.09
2023-05-18T21:12:47.139Z,70.17
2023-05-18T21:15:15.410Z,70.31
2023-05-18T21:17:43.653Z,70.54
2023-05-18T21:20:12.578Z,70.72
2023-05-18T21:22:40.747Z,70.71
2023-05-18T21:25:09.283Z,70.79
2023-05-18T21:27:37.706Z,70.99
2023-05-18T21:30:06.909Z,71.02
2023-05-18T21:32:35.412Z,71.19
2023-05-18T21:35:04.509Z,71.51
2023-05-18T21:37:32.856Z,71.45
2023-05-18T21:40:01.638Z,71.60
2023-05-18T21:42:29.916Z,71.67
2023-05-18T21:44:58.196Z,71.83
2023-05-18T21:47:26.717Z,72.13
2023-05-18T21:49:54.944Z,72.16
2023-05-18T21:52:23.734Z,72.33
2023-05-18T21:54:51.904Z,72.30
2023-05-18T21:57:20.079Z,72.39
2023-05-18T21:59:48.354Z,72.54
2023-05-18T22:02:16.626Z,72.81
2023-05-18T22:04:45.272Z,72.93
2023-05-18T22:07:14.914Z,73.12
2023-05-18T22:09:43.296Z,73.33
2023-05-18T22:12:11.574Z,73.37
2023-05-18T22:14:40.049Z,73.34
2023-05-18T22:17:08.418Z,73.55
2023-05-18T22:19:36.802Z,73.65
2023-05-18T22:22:06.874Z,73.83
2023-05-18T22:24:36.424Z,73.99
2023-05-18T22:27:05.415Z,74.16
2023-05-18T22:29:33.671Z,74.34
2023-05-18T22:32:02.330Z,74.64
2023-05-18T22:34:30.643Z,74.56
2023-05-18T22:36:58.933Z,74.57
2023-05-18T22:39:27.094Z,74.70
2023-05-18T22:41:55.262Z,74.70
2023-05-18T22:44:23.435Z,74.84
2023-05-18T22:46:51.695Z,74.86
2023-05-18T22:49:20.090Z,74.99
2023-05-18T22:51:48.667Z,75.22
2023-05-18T22:54:16.941Z,75.44
2023-05-18T22:56:45.129Z,75.47
2023-05-18T22:59:13.507Z,75.40
2023-05-18T23:01:41.735Z,75.58
2023-05-18T23:04:10.053Z,75.84
2023-05-18T23:06:38.417Z,75.93
2023-05-18T23:09:06.592Z,75.65
2023-05-18T23:11:35.275Z,76.06
2023-05-18T23:14:03.570Z,76.09
2023-05-18T23:16:31.844Z,76.25
2023-05-18T23:19:01.929Z,76.39
2023-05-18T23:21:31.658Z,76.59
2023-05-18T23:24:00.026Z,76.70
2023-05-18T23:26:28.405Z,76.88
2023-05-18T23:28:56.886Z,76.86
2023-05-18T23:31:25.164Z,77.10
2023-05-18T23:33:53.871Z,77.27
2023-05-18T23:36:22.427Z,77.28
2023-05-18T23:38:51.315Z,77.60
2023-05-18T23:41:19.796Z,77.60
2023-05-18T23:43:48.174Z,77.58
2023-05-18T23:46:17.234Z,77.84
2023-05-18T23:48:46.158Z,77.92
2023-05-18T23:51:19.385Z,77.94
2023-05-18T23:53:49.711Z,78.14
2023-05-18T23:56:18.759Z,78.16
2023-05-18T23:58:47.556Z,78.45
